sensor_id;sensor_type;location;lat;lon;timestamp;P1;durP1;ratioP1;P2;durP2;ratioP2
20000;SDS011;10161;41.188;-8.642;2023-04-01T00:01:07;28.83;;;6.33;;
20000;SDS011;10161;41.188;-8.642;2023-04-01T00:03:34;27.60;;;7.43;;
20000;SDS011;10161;41.188;-8.642;2023-04-01T00:06:03;28.63;;;7.10;;
20000;SDS011;10161;41.188;-8.642;2023-04-01T00:08:30;28.47;;;6.63;;
20000;SDS011;10161;41.188;-8.642;2023-04-01T00:10:58;32.50;;;6.93;;
20000;SDS011;10161;41.188;-8.642;2023-04-01T00:13:28;32.43;;;7.50;;
20000;SDS011;10161;41.188;-8.642;2023-04-01T00:15:55;28.00;;;6.53;;
20000;SDS011;10161;41.188;-8.642;2023-04-01T00:18:23;39.10;;;7.93;;
20000;SDS011;10161;41.188;-8.642;2023-04-01T00:20:50;32.70;;;7.27;;
20000;SDS011;10161;41.188;-8.642;2023-04-01T00:23:19;32.97;;;6.80;;
20000;SDS011;10161;41.188;-8.642;2023-04-01T00:25:47;30.40;;;6.13;;
20000;SDS011;10161;41.188;-8.642;2023-04-01T00:28:14;38.80;;;7.73;;
20000;SDS011;10161;41.188;-8.642;2023-04-01T00:30:41;37.93;;;7.87;;
20000;SDS011;10161;41.188;-8.642;2023-04-01T00:33:09;36.37;;;7.50;;
20000;SDS011;10161;41.188;-8.642;2023-04-01T00:35:36;34.23;;;7.57;;
20000;SDS011;10161;41.188;-8.642;2023-04-01T00:38:03;31.00;;;6.83;;
20000;SDS011;10161;41.188;-8.642;2023-04-01T00:40:33;29.13;;;7.00;;
20000;SDS011;10161;41.188;-8.642;2023-04-01T00:43:02;31.33;;;6.60;;
20000;SDS011;10161;41.188;-8.642;2023-04-01T00:45:34;33.77;;;6.63;;
20000;SDS011;10161;41.188;-8.642;2023-04-01T00:48:04;27.93;;;6.83;;
20000;SDS011;10161;41.188;-8.642;2023-04-01T00:50:34;28.87;;;6.20;;
20000;SDS011;10161;41.188;-8.642;2023-04-01T00:53:02;29.50;;;6.63;;
20000;SDS011;10161;41.188;-8.642;2023-04-01T00:55:30;35.33;;;6.00;;
20000;SDS011;10161;41.188;-8.642;2023-04-01T00:58:01;22.17;;;5.60;;
20000;SDS011;10161;41.188;-8.642;2023-04-01T01:00:28;28.07;;;5.97;;
20000;SDS011;10161;41.188;-8.642;2023-04-01T01:02:56;32.00;;;7.23;;
20000;SDS011;10161;41.188;-8.642;2023-04-01T01:05:25;23.90;;;5.60;;
20000;SDS011;10161;41.188;-8.642;2023-04-01T01:07:59;34.77;;;7.00;;
20000;SDS011;10161;41.188;-8.642;2023-04-01T01:10:30;27.43;;;7.70;;
20000;SDS011;10161;41.188;-8.642;2023-04-01T01:13:04;35.30;;;6.20;;
20000;SDS011;10161;41.188;-8.642;2023-04-01T01:15:37;26.03;;;6.70;;
20000;SDS011;10161;41.188;-8.642;2023-04-01T01:18:09;34.00;;;6.70;;
20000;SDS011;10161;41.188;-8.642;2023-04-01T01:26:34;41.20;;;7.67;;
20000;SDS011;10161;41.188;-8.642;2023-04-01T01:29:36;30.70;;;6.07;;
20000;SDS011;10161;41.188;-8.642;2023-04-01T01:32:22;28.50;;;7.43;;
20000;SDS011;10161;41.188;-8.642;2023-04-01T01:35:26;36.40;;;6.70;;
20000;SDS011;10161;41.188;-8.642;2023-04-01T01:37:55;26.07;;;5.90;;
20000;SDS011;10161;41.188;-8.642;2023-04-01T01:40:23;24.83;;;5.60;;
20000;SDS011;10161;41.188;-8.642;2023-04-01T01:42:52;31.37;;;6.47;;
20000;SDS011;10161;41.188;-8.642;2023-04-01T01:45:22;35.43;;;6.50;;
20000;SDS011;10161;41.188;-8.642;2023-04-01T01:47:50;29.83;;;8.03;;
20000;SDS011;10161;41.188;-8.642;2023-04-01T01:50:19;28.47;;;7.20;;
20000;SDS011;10161;41.188;-8.642;2023-04-01T01:52:48;24.90;;;5.97;;
20000;SDS011;10161;41.188;-8.642;2023-04-01T01:55:26;26.83;;;6.50;;
20000;SDS011;10161;41.188;-8.642;2023-04-01T01:57:56;29.83;;;7.30;;
20000;SDS011;10161;41.188;-8.642;2023-04-01T02:00:25;30.40;;;7.07;;
20000;SDS011;10161;41.188;-8.642;2023-04-01T02:02:52;29.10;;;7.00;;
20000;SDS011;10161;41.188;-8.642;2023-04-01T02:05:22;28.30;;;6.20;;
20000;SDS011;10161;41.188;-8.642;2023-04-01T02:07:52;32.53;;;6.90;;
20000;SDS011;10161;41.188;-8.642;2023-04-01T02:10:25;27.53;;;6.00;;
20000;SDS011;10161;41.188;-8.642;2023-04-01T02:12:53;32.87;;;6.63;;
20000;SDS011;10161;41.188;-8.642;2023-04-01T02:15:23;30.57;;;5.97;;
20000;SDS011;10161;41.188;-8.642;2023-04-01T02:17:51;24.90;;;6.00;;
20000;SDS011;10161;41.188;-8.642;2023-04-01T02:20:19;33.00;;;6.40;;
20000;SDS011;10161;41.188;-8.642;2023-04-01T02:22:49;31.87;;;7.17;;
20000;SDS011;10161;41.188;-8.642;2023-04-01T02:25:17;25.50;;;6.17;;
20000;SDS011;10161;41.188;-8.642;2023-04-01T02:27:45;37.07;;;6.60;;
20000;SDS011;10161;41.188;-8.642;2023-04-01T02:30:12;32.80;;;7.10;;
20000;SDS011;10161;41.188;-8.642;2023-04-01T02:32:40;32.77;;;6.90;;
20000;SDS011;10161;41.188;-8.642;2023-04-01T02:35:08;24.73;;;6.47;;
20000;SDS011;10161;41.188;-8.642;2023-04-01T02:37:38;32.93;;;6.10;;
20000;SDS011;10161;41.188;-8.642;2023-04-01T02:40:08;26.90;;;6.27;;
20000;SDS011;10161;41.188;-8.642;2023-04-01T02:42:37;26.23;;;6.10;;
20000;SDS011;10161;41.188;-8.642;2023-04-01T02:45:05;28.60;;;7.07;;
20000;SDS011;10161;41.188;-8.642;2023-04-01T02:47:33;31.93;;;6.63;;
20000;SDS011;10161;41.188;-8.642;2023-04-01T02:50:00;27.07;;;6.80;;
20000;SDS011;10161;41.188;-8.642;2023-04-01T02:52:28;34.17;;;5.93;;
20000;SDS011;10161;41.188;-8.642;2023-04-01T02:54:57;30.00;;;7.03;;
20000;SDS011;10161;41.188;-8.642;2023-04-01T02:57:24;25.27;;;6.43;;
20000;SDS011;10161;41.188;-8.642;2023-04-01T02:59:51;22.37;;;6.17;;
20000;SDS011;10161;41.188;-8.642;2023-04-01T03:02:18;29.60;;;5.60;;
20000;SDS011;10161;41.188;-8.642;2023-04-01T03:04:45;33.50;;;7.13;;
20000;SDS011;10161;41.188;-8.642;2023-04-01T03:07:12;34.33;;;6.50;;
20000;SDS011;10161;41.188;-8.642;2023-04-01T03:09:40;25.20;;;7.20;;
20000;SDS011;10161;41.188;-8.642;2023-04-01T03:12:09;26.63;;;6.37;;
20000;SDS011;10161;41.188;-8.642;2023-04-01T03:14:36;31.80;;;6.53;;
20000;SDS011;10161;41.188;-8.642;2023-04-01T03:17:02;33.60;;;5.97;;
20000;SDS011;10161;41.188;-8.642;2023-04-01T03:19:30;29.23;;;5.57;;
20000;SDS011;10161;41.188;-8.642;2023-04-01T03:21:58;31.57;;;6.80;;
20000;SDS011;10161;41.188;-8.642;2023-04-01T03:24:26;32.70;;;6.00;;
20000;SDS011;10161;41.188;-8.642;2023-04-01T03:26:53;27.53;;;6.47;;
20000;SDS011;10161;41.188;-8.642;2023-04-01T03:29:22;28.60;;;7.07;;
20000;SDS011;10161;41.188;-8.642;2023-04-01T03:31:49;31.63;;;7.13;;
20000;SDS011;10161;41.188;-8.642;2023-04-01T03:34:16;29.20;;;5.80;;
20000;SDS011;10161;41.188;-8.642;2023-04-01T03:36:43;31.47;;;6.93;;
20000;SDS011;10161;41.188;-8.642;2023-04-01T03:39:10;24.63;;;5.90;;
20000;SDS011;10161;41.188;-8.642;2023-04-01T03:41:37;33.17;;;6.30;;
20000;SDS011;10161;41.188;-8.642;2023-04-01T03:44:04;32.00;;;7.10;;
20000;SDS011;10161;41.188;-8.642;2023-04-01T03:46:33;29.23;;;6.60;;
20000;SDS011;10161;41.188;-8.642;2023-04-01T03:49:00;33.90;;;6.60;;
20000;SDS011;10161;41.188;-8.642;2023-04-01T03:51:27;28.17;;;6.63;;
20000;SDS011;10161;41.188;-8.642;2023-04-01T03:53:54;27.93;;;5.80;;
20000;SDS011;10161;41.188;-8.642;2023-04-01T03:56:21;29.40;;;6.83;;
20000;SDS011;10161;41.188;-8.642;2023-04-01T03:58:49;34.70;;;7.17;;
20000;SDS011;10161;41.188;-8.642;2023-04-01T04:01:17;35.37;;;6.33;;
20000;SDS011;10161;41.188;-8.642;2023-04-01T04:03:47;25.70;;;6.10;;
20000;SDS011;10161;41.188;-8.642;2023-04-01T04:06:15;24.37;;;5.40;;
20000;SDS011;10161;41.188;-8.642;2023-04-01T04:08:43;22.33;;;5.67;;
20000;SDS011;10161;41.188;-8.642;2023-04-01T04:11:10;23.03;;;5.83;;
20000;SDS011;10161;41.188;-8.642;2023-04-01T04:13:38;27.27;;;6.03;;
20000;SDS011;10161;41.188;-8.642;2023-04-01T04:16:05;36.13;;;6.43;;
20000;SDS011;10161;41.188;-8.642;2023-04-01T04:18:33;21.67;;;5.23;;
20000;SDS011;10161;41.188;-8.642;2023-04-01T04:21:02;29.90;;;6.03;;
20000;SDS011;10161;41.188;-8.642;2023-04-01T04:23:29;25.83;;;6.10;;
20000;SDS011;10161;41.188;-8.642;2023-04-01T04:25:59;27.93;;;5.67;;
20000;SDS011;10161;41.188;-8.642;2023-04-01T04:28:26;31.17;;;5.77;;
20000;SDS011;10161;41.188;-8.642;2023-04-01T04:30:54;27.37;;;5.57;;
20000;SDS011;10161;41.188;-8.642;2023-04-01T04:33:21;26.50;;;6.33;;
20000;SDS011;10161;41.188;-8.642;2023-04-01T04:35:49;35.60;;;6.67;;
20000;SDS011;10161;41.188;-8.642;2023-04-01T04:38:19;21.53;;;5.53;;
20000;SDS011;10161;41.188;-8.642;2023-04-01T04:40:46;20.90;;;5.37;;
20000;SDS011;10161;41.188;-8.642;2023-04-01T04:43:13;25.43;;;6.37;;
20000;SDS011;10161;41.188;-8.642;2023-04-01T04:45:43;24.90;;;5.97;;
20000;SDS011;10161;41.188;-8.642;2023-04-01T04:48:10;21.83;;;5.87;;
20000;SDS011;10161;41.188;-8.642;2023-04-01T04:50:41;25.63;;;6.47;;
20000;SDS011;10161;41.188;-8.642;2023-04-01T04:53:09;35.43;;;6.37;;
20000;SDS011;10161;41.188;-8.642;2023-04-01T04:55:37;20.77;;;5.10;;
20000;SDS011;10161;41.188;-8.642;2023-04-01T04:58:04;30.93;;;6.00;;
20000;SDS011;10161;41.188;-8.642;2023-04-01T05:00:31;27.70;;;5.83;;
20000;SDS011;10161;41.188;-8.642;2023-04-01T05:02:58;23.53;;;5.87;;
20000;SDS011;10161;41.188;-8.642;2023-04-01T05:05:25;20.03;;;6.40;;
20000;SDS011;10161;41.188;-8.642;2023-04-01T05:07:52;19.93;;;4.83;;
20000;SDS011;10161;41.188;-8.642;2023-04-01T05:10:19;19.70;;;5.83;;
20000;SDS011;10161;41.188;-8.642;2023-04-01T05:12:48;26.53;;;5.97;;
20000;SDS011;10161;41.188;-8.642;2023-04-01T05:15:15;22.07;;;5.30;;
20000;SDS011;10161;41.188;-8.642;2023-04-01T05:17:42;15.00;;;5.30;;
20000;SDS011;10161;41.188;-8.642;2023-04-01T05:20:11;18.83;;;5.20;;
20000;SDS011;10161;41.188;-8.642;2023-04-01T05:22:38;27.23;;;6.10;;
20000;SDS011;10161;41.188;-8.642;2023-04-01T05:25:05;27.00;;;5.30;;
20000;SDS011;10161;41.188;-8.642;2023-04-01T05:27:33;38.17;;;7.27;;
20000;SDS011;10161;41.188;-8.642;2023-04-01T05:30:02;30.43;;;6.50;;
20000;SDS011;10161;41.188;-8.642;2023-04-01T05:32:30;33.43;;;6.80;;
20000;SDS011;10161;41.188;-8.642;2023-04-01T05:34:57;29.37;;;6.10;;
20000;SDS011;10161;41.188;-8.642;2023-04-01T05:37:24;22.63;;;5.67;;
20000;SDS011;10161;41.188;-8.642;2023-04-01T05:39:51;26.20;;;6.20;;
20000;SDS011;10161;41.188;-8.642;2023-04-01T05:42:18;21.13;;;5.93;;
20000;SDS011;10161;41.188;-8.642;2023-04-01T05:44:45;19.60;;;5.00;;
20000;SDS011;10161;41.188;-8.642;2023-04-01T05:47:13;21.23;;;5.50;;
20000;SDS011;10161;41.188;-8.642;2023-04-01T05:49:40;19.63;;;5.30;;
20000;SDS011;10161;41.188;-8.642;2023-04-01T05:52:09;21.07;;;4.67;;
20000;SDS011;10161;41.188;-8.642;2023-04-01T05:54:36;14.70;;;3.87;;
20000;SDS011;10161;41.188;-8.642;2023-04-01T05:57:04;18.53;;;4.73;;
20000;SDS011;10161;41.188;-8.642;2023-04-01T05:59:32;15.27;;;4.50;;
20000;SDS011;10161;41.188;-8.642;2023-04-01T06:02:00;10.53;;;3.77;;
20000;SDS011;10161;41.188;-8.642;2023-04-01T06:04:31;14.93;;;4.10;;
20000;SDS011;10161;41.188;-8.642;2023-04-01T06:07:01;13.40;;;3.13;;
20000;SDS011;10161;41.188;-8.642;2023-04-01T06:09:35;20.03;;;4.47;;
20000;SDS011;10161;41.188;-8.642;2023-04-01T06:15:12;20.07;;;4.80;;
20000;SDS011;10161;41.188;-8.642;2023-04-01T06:17:50;17.13;;;4.30;;
20000;SDS011;10161;41.188;-8.642;2023-04-01T06:20:24;14.60;;;4.57;;
20000;SDS011;10161;41.188;-8.642;2023-04-01T06:25:42;13.97;;;4.20;;
20000;SDS011;10161;41.188;-8.642;2023-04-01T06:28:29;8.87;;;3.77;;
20000;SDS011;10161;41.188;-8.642;2023-04-01T06:31:20;18.67;;;4.40;;
20000;SDS011;10161;41.188;-8.642;2023-04-01T06:33:57;14.70;;;4.00;;
20000;SDS011;10161;41.188;-8.642;2023-04-01T06:36:42;11.57;;;3.90;;
20000;SDS011;10161;41.188;-8.642;2023-04-01T06:39:18;11.40;;;3.60;;
20000;SDS011;10161;41.188;-8.642;2023-04-01T06:42:15;15.63;;;3.67;;
20000;SDS011;10161;41.188;-8.642;2023-04-01T06:44:49;12.10;;;4.27;;
20000;SDS011;10161;41.188;-8.642;2023-04-01T06:47:25;15.97;;;3.57;;
20000;SDS011;10161;41.188;-8.642;2023-04-01T06:49:59;16.30;;;4.20;;
20000;SDS011;10161;41.188;-8.642;2023-04-01T06:52:36;13.93;;;4.20;;
20000;SDS011;10161;41.188;-8.642;2023-04-01T06:55:15;13.43;;;3.97;;
20000;SDS011;10161;41.188;-8.642;2023-04-01T06:57:48;11.90;;;3.63;;
20000;SDS011;10161;41.188;-8.642;2023-04-01T07:00:18;8.30;;;2.50;;
20000;SDS011;10161;41.188;-8.642;2023-04-01T07:02:49;11.60;;;3.57;;
20000;SDS011;10161;41.188;-8.642;2023-04-01T07:05:18;9.40;;;2.77;;
20000;SDS011;10161;41.188;-8.642;2023-04-01T07:07:48;19.67;;;3.93;;
20000;SDS011;10161;41.188;-8.642;2023-04-01T07:10:19;13.17;;;3.50;;
20000;SDS011;10161;41.188;-8.642;2023-04-01T07:12:48;11.57;;;3.40;;
20000;SDS011;10161;41.188;-8.642;2023-04-01T07:15:19;10.43;;;3.03;;
20000;SDS011;10161;41.188;-8.642;2023-04-01T07:17:48;15.73;;;3.90;;
20000;SDS011;10161;41.188;-8.642;2023-04-01T07:20:22;11.30;;;3.67;;
20000;SDS011;10161;41.188;-8.642;2023-04-01T07:22:56;10.10;;;3.33;;
20000;SDS011;10161;41.188;-8.642;2023-04-01T07:25:25;10.00;;;3.33;;
20000;SDS011;10161;41.188;-8.642;2023-04-01T07:27:52;14.03;;;4.03;;
20000;SDS011;10161;41.188;-8.642;2023-04-01T07:30:20;13.47;;;3.97;;
20000;SDS011;10161;41.188;-8.642;2023-04-01T07:32:50;11.30;;;3.37;;
20000;SDS011;10161;41.188;-8.642;2023-04-01T07:35:21;12.40;;;3.53;;
20000;SDS011;10161;41.188;-8.642;2023-04-01T07:40:52;12.10;;;3.97;;
20000;SDS011;10161;41.188;-8.642;2023-04-01T07:43:25;11.50;;;3.20;;
20000;SDS011;10161;41.188;-8.642;2023-04-01T07:46:13;11.40;;;3.67;;
20000;SDS011;10161;41.188;-8.642;2023-04-01T07:48:48;14.27;;;4.27;;
20000;SDS011;10161;41.188;-8.642;2023-04-01T07:51:19;15.60;;;4.00;;
20000;SDS011;10161;41.188;-8.642;2023-04-01T07:53:53;10.10;;;3.17;;
20000;SDS011;10161;41.188;-8.642;2023-04-01T07:56:26;11.87;;;3.27;;
20000;SDS011;10161;41.188;-8.642;2023-04-01T07:58:58;10.73;;;3.33;;
20000;SDS011;10161;41.188;-8.642;2023-04-01T08:01:28;15.20;;;3.80;;
20000;SDS011;10161;41.188;-8.642;2023-04-01T08:04:06;15.83;;;4.63;;
20000;SDS011;10161;41.188;-8.642;2023-04-01T08:06:45;12.70;;;3.20;;
20000;SDS011;10161;41.188;-8.642;2023-04-01T08:09:25;8.13;;;2.60;;
20000;SDS011;10161;41.188;-8.642;2023-04-01T08:11:59;12.37;;;4.00;;
20000;SDS011;10161;41.188;-8.642;2023-04-01T08:14:32;12.57;;;3.60;;
20000;SDS011;10161;41.188;-8.642;2023-04-01T08:17:07;11.00;;;3.27;;
20000;SDS011;10161;41.188;-8.642;2023-04-01T08:19:45;14.47;;;3.20;;
20000;SDS011;10161;41.188;-8.642;2023-04-01T08:22:22;14.73;;;3.90;;
20000;SDS011;10161;41.188;-8.642;2023-04-01T08:24:57;15.13;;;4.10;;
20000;SDS011;10161;41.188;-8.642;2023-04-01T08:27:28;13.60;;;3.70;;
20000;SDS011;10161;41.188;-8.642;2023-04-01T08:30:03;12.00;;;3.07;;
20000;SDS011;10161;41.188;-8.642;2023-04-01T08:32:34;11.33;;;3.73;;
20000;SDS011;10161;41.188;-8.642;2023-04-01T08:35:07;15.20;;;4.50;;
20000;SDS011;10161;41.188;-8.642;2023-04-01T08:37:36;14.10;;;4.23;;
20000;SDS011;10161;41.188;-8.642;2023-04-01T08:40:14;19.80;;;4.70;;
20000;SDS011;10161;41.188;-8.642;2023-04-01T08:42:53;20.07;;;5.93;;
20000;SDS011;10161;41.188;-8.642;2023-04-01T08:51:42;22.30;;;10.10;;
20000;SDS011;10161;41.188;-8.642;2023-04-01T08:54:34;18.73;;;4.63;;
20000;SDS011;10161;41.188;-8.642;2023-04-01T08:57:12;16.17;;;3.97;;
20000;SDS011;10161;41.188;-8.642;2023-04-01T08:59:48;20.80;;;5.10;;
20000;SDS011;10161;41.188;-8.642;2023-04-01T09:02:26;12.90;;;3.57;;
20000;SDS011;10161;41.188;-8.642;2023-04-01T09:05:12;13.30;;;3.60;;
20000;SDS011;10161;41.188;-8.642;2023-04-01T09:08:09;14.57;;;4.90;;
20000;SDS011;10161;41.188;-8.642;2023-04-01T09:13:29;17.17;;;4.27;;
20000;SDS011;10161;41.188;-8.642;2023-04-01T09:16:06;11.90;;;3.90;;
20000;SDS011;10161;41.188;-8.642;2023-04-01T09:18:49;15.03;;;4.40;;
20000;SDS011;10161;41.188;-8.642;2023-04-01T09:21:29;17.80;;;4.60;;
20000;SDS011;10161;41.188;-8.642;2023-04-01T09:24:13;14.40;;;3.90;;
20000;SDS011;10161;41.188;-8.642;2023-04-01T09:27:05;16.17;;;3.70;;
20000;SDS011;10161;41.188;-8.642;2023-04-01T09:32:58;11.37;;;3.60;;
20000;SDS011;10161;41.188;-8.642;2023-04-01T09:35:38;11.17;;;3.50;;
20000;SDS011;10161;41.188;-8.642;2023-04-01T09:38:12;8.70;;;2.90;;
20000;SDS011;10161;41.188;-8.642;2023-04-01T09:40:48;14.10;;;3.47;;
20000;SDS011;10161;41.188;-8.642;2023-04-01T09:43:22;17.73;;;4.63;;
20000;SDS011;10161;41.188;-8.642;2023-04-01T09:45:58;13.90;;;5.00;;
20000;SDS011;10161;41.188;-8.642;2023-04-01T09:48:41;7.20;;;3.40;;
20000;SDS011;10161;41.188;-8.642;2023-04-01T09:51:18;10.03;;;2.97;;
20000;SDS011;10161;41.188;-8.642;2023-04-01T09:53:55;12.13;;;3.73;;
20000;SDS011;10161;41.188;-8.642;2023-04-01T09:56:40;12.00;;;3.90;;
20000;SDS011;10161;41.188;-8.642;2023-04-01T10:03:01;10.73;;;3.63;;
20000;SDS011;10161;41.188;-8.642;2023-04-01T10:06:02;10.60;;;3.93;;
20000;SDS011;10161;41.188;-8.642;2023-04-01T10:15:10;6.57;;;2.90;;
20000;SDS011;10161;41.188;-8.642;2023-04-01T10:17:57;9.73;;;3.33;;
20000;SDS011;10161;41.188;-8.642;2023-04-01T10:20:35;6.90;;;2.70;;
20000;SDS011;10161;41.188;-8.642;2023-04-01T10:29:38;9.13;;;3.20;;
20000;SDS011;10161;41.188;-8.642;2023-04-01T10:41:50;6.60;;;3.07;;
20000;SDS011;10161;41.188;-8.642;2023-04-01T10:50:24;2.70;;;1.87;;
20000;SDS011;10161;41.188;-8.642;2023-04-01T10:53:16;3.37;;;1.93;;
20000;SDS011;10161;41.188;-8.642;2023-04-01T10:55:54;4.47;;;2.03;;
20000;SDS011;10161;41.188;-8.642;2023-04-01T11:01:53;3.33;;;2.00;;
20000;SDS011;10161;41.188;-8.642;2023-04-01T11:04:51;3.10;;;2.00;;
20000;SDS011;10161;41.188;-8.642;2023-04-01T11:11:05;3.00;;;2.20;;
20000;SDS011;10161;41.188;-8.642;2023-04-01T11:14:14;2.00;;;1.73;;
20000;SDS011;10161;41.188;-8.642;2023-04-01T11:16:57;3.50;;;2.00;;
20000;SDS011;10161;41.188;-8.642;2023-04-01T11:20:03;2.93;;;2.10;;
20000;SDS011;10161;41.188;-8.642;2023-04-01T11:22:55;2.10;;;1.67;;
20000;SDS011;10161;41.188;-8.642;2023-04-01T11:28:24;4.00;;;2.07;;
20000;SDS011;10161;41.188;-8.642;2023-04-01T11:31:04;2.90;;;2.30;;
20000;SDS011;10161;41.188;-8.642;2023-04-01T11:33:46;1.80;;;1.70;;
20000;SDS011;10161;41.188;-8.642;2023-04-01T11:36:20;2.97;;;1.90;;
20000;SDS011;10161;41.188;-8.642;2023-04-01T11:38:55;2.33;;;1.90;;
20000;SDS011;10161;41.188;-8.642;2023-04-01T11:41:30;2.10;;;1.97;;
20000;SDS011;10161;41.188;-8.642;2023-04-01T11:44:09;3.40;;;2.30;;
20000;SDS011;10161;41.188;-8.642;2023-04-01T11:46:44;3.50;;;2.40;;
20000;SDS011;10161;41.188;-8.642;2023-04-01T11:49:35;2.30;;;2.03;;
20000;SDS011;10161;41.188;-8.642;2023-04-01T11:52:20;2.57;;;2.37;;
20000;SDS011;10161;41.188;-8.642;2023-04-01T11:54:59;2.27;;;2.07;;
20000;SDS011;10161;41.188;-8.642;2023-04-01T11:57:36;2.50;;;2.30;;
20000;SDS011;10161;41.188;-8.642;2023-04-01T12:00:21;3.20;;;2.37;;
20000;SDS011;10161;41.188;-8.642;2023-04-01T12:03:02;3.03;;;2.10;;
20000;SDS011;10161;41.188;-8.642;2023-04-01T12:05:43;2.40;;;2.20;;
20000;SDS011;10161;41.188;-8.642;2023-04-01T12:08:15;3.63;;;2.60;;
20000;SDS011;10161;41.188;-8.642;2023-04-01T12:10:53;3.57;;;2.90;;
20000;SDS011;10161;41.188;-8.642;2023-04-01T12:13:26;4.03;;;2.83;;
20000;SDS011;10161;41.188;-8.642;2023-04-01T12:16:03;2.83;;;2.20;;
20000;SDS011;10161;41.188;-8.642;2023-04-01T12:18:38;3.17;;;2.13;;
20000;SDS011;10161;41.188;-8.642;2023-04-01T12:21:14;3.07;;;2.30;;
20000;SDS011;10161;41.188;-8.642;2023-04-01T12:24:01;3.23;;;2.53;;
20000;SDS011;10161;41.188;-8.642;2023-04-01T12:27:06;3.83;;;2.80;;
20000;SDS011;10161;41.188;-8.642;2023-04-01T12:30:02;3.60;;;2.60;;
20000;SDS011;10161;41.188;-8.642;2023-04-01T12:32:40;3.70;;;2.67;;
20000;SDS011;10161;41.188;-8.642;2023-04-01T12:35:15;4.40;;;3.43;;
20000;SDS011;10161;41.188;-8.642;2023-04-01T12:37:49;4.00;;;3.57;;
20000;SDS011;10161;41.188;-8.642;2023-04-01T12:40:26;2.57;;;2.37;;
20000;SDS011;10161;41.188;-8.642;2023-04-01T12:43:05;2.07;;;1.90;;
20000;SDS011;10161;41.188;-8.642;2023-04-01T12:45:57;1.97;;;1.80;;
20000;SDS011;10161;41.188;-8.642;2023-04-01T12:48:41;1.97;;;1.70;;
20000;SDS011;10161;41.188;-8.642;2023-04-01T12:51:47;2.20;;;2.00;;
20000;SDS011;10161;41.188;-8.642;2023-04-01T12:54:27;2.27;;;1.97;;
20000;SDS011;10161;41.188;-8.642;2023-04-01T12:57:27;3.37;;;2.57;;
20000;SDS011;10161;41.188;-8.642;2023-04-01T13:00:23;4.13;;;2.93;;
20000;SDS011;10161;41.188;-8.642;2023-04-01T13:03:00;2.40;;;2.20;;
20000;SDS011;10161;41.188;-8.642;2023-04-01T13:05:37;2.57;;;2.20;;
20000;SDS011;10161;41.188;-8.642;2023-04-01T13:08:31;2.60;;;2.40;;
20000;SDS011;10161;41.188;-8.642;2023-04-01T13:11:13;2.50;;;2.30;;
20000;SDS011;10161;41.188;-8.642;2023-04-01T13:13:47;2.73;;;2.30;;
20000;SDS011;10161;41.188;-8.642;2023-04-01T13:16:24;2.70;;;2.50;;
20000;SDS011;10161;41.188;-8.642;2023-04-01T13:18:57;2.80;;;2.50;;
20000;SDS011;10161;41.188;-8.642;2023-04-01T13:21:31;2.57;;;1.97;;
20000;SDS011;10161;41.188;-8.642;2023-04-01T13:24:06;2.60;;;2.40;;
20000;SDS011;10161;41.188;-8.642;2023-04-01T13:26:53;3.00;;;2.27;;
20000;SDS011;10161;41.188;-8.642;2023-04-01T13:29:23;2.00;;;1.80;;
20000;SDS011;10161;41.188;-8.642;2023-04-01T13:31:55;1.60;;;1.50;;
20000;SDS011;10161;41.188;-8.642;2023-04-01T13:34:34;1.60;;;1.50;;
20000;SDS011;10161;41.188;-8.642;2023-04-01T13:37:13;2.57;;;2.07;;
20000;SDS011;10161;41.188;-8.642;2023-04-01T13:39:57;1.73;;;1.63;;
20000;SDS011;10161;41.188;-8.642;2023-04-01T13:42:33;2.43;;;1.87;;
20000;SDS011;10161;41.188;-8.642;2023-04-01T13:45:09;1.80;;;1.70;;
20000;SDS011;10161;41.188;-8.642;2023-04-01T13:50:46;1.80;;;1.70;;
20000;SDS011;10161;41.188;-8.642;2023-04-01T13:56:37;2.50;;;2.30;;
20000;SDS011;10161;41.188;-8.642;2023-04-01T13:59:21;3.20;;;2.37;;
20000;SDS011;10161;41.188;-8.642;2023-04-01T14:02:05;2.87;;;2.50;;
20000;SDS011;10161;41.188;-8.642;2023-04-01T14:04:53;2.67;;;2.17;;
20000;SDS011;10161;41.188;-8.642;2023-04-01T14:07:34;2.40;;;2.20;;
20000;SDS011;10161;41.188;-8.642;2023-04-01T14:10:19;3.03;;;2.13;;
20000;SDS011;10161;41.188;-8.642;2023-04-01T14:12:50;2.33;;;2.07;;
20000;SDS011;10161;41.188;-8.642;2023-04-01T14:21:33;2.20;;;2.00;;
20000;SDS011;10161;41.188;-8.642;2023-04-01T14:27:07;2.83;;;1.80;;
20000;SDS011;10161;41.188;-8.642;2023-04-01T14:29:46;1.60;;;1.50;;
20000;SDS011;10161;41.188;-8.642;2023-04-01T14:32:27;1.67;;;1.57;;
20000;SDS011;10161;41.188;-8.642;2023-04-01T14:35:09;1.87;;;1.57;;
20000;SDS011;10161;41.188;-8.642;2023-04-01T14:37:52;1.87;;;1.50;;
20000;SDS011;10161;41.188;-8.642;2023-04-01T14:40:40;1.90;;;1.30;;
20000;SDS011;10161;41.188;-8.642;2023-04-01T14:43:22;1.50;;;1.40;;
20000;SDS011;10161;41.188;-8.642;2023-04-01T14:46:02;1.10;;;1.00;;
20000;SDS011;10161;41.188;-8.642;2023-04-01T14:48:36;1.27;;;1.17;;
20000;SDS011;10161;41.188;-8.642;2023-04-01T14:51:09;1.20;;;1.07;;
20000;SDS011;10161;41.188;-8.642;2023-04-01T14:53:43;1.37;;;1.27;;
20000;SDS011;10161;41.188;-8.642;2023-04-01T14:56:11;1.63;;;1.20;;
20000;SDS011;10161;41.188;-8.642;2023-04-01T14:58:42;1.87;;;1.47;;
20000;SDS011;10161;41.188;-8.642;2023-04-01T15:01:13;1.50;;;1.40;;
20000;SDS011;10161;41.188;-8.642;2023-04-01T15:03:55;1.57;;;1.47;;
20000;SDS011;10161;41.188;-8.642;2023-04-01T15:06:35;2.87;;;2.67;;
20000;SDS011;10161;41.188;-8.642;2023-04-01T15:09:08;2.47;;;2.27;;
20000;SDS011;10161;41.188;-8.642;2023-04-01T15:11:45;3.00;;;2.80;;
20000;SDS011;10161;41.188;-8.642;2023-04-01T15:17:22;3.27;;;3.07;;
20000;SDS011;10161;41.188;-8.642;2023-04-01T15:20:02;2.90;;;2.70;;
20000;SDS011;10161;41.188;-8.642;2023-04-01T15:22:40;3.57;;;3.27;;
20000;SDS011;10161;41.188;-8.642;2023-04-01T15:25:19;4.63;;;3.80;;
20000;SDS011;10161;41.188;-8.642;2023-04-01T15:27:53;6.00;;;5.43;;
20000;SDS011;10161;41.188;-8.642;2023-04-01T15:30:28;4.77;;;4.33;;
20000;SDS011;10161;41.188;-8.642;2023-04-01T15:33:02;5.13;;;4.63;;
20000;SDS011;10161;41.188;-8.642;2023-04-01T15:35:43;3.93;;;3.60;;
20000;SDS011;10161;41.188;-8.642;2023-04-01T15:38:16;4.30;;;3.90;;
20000;SDS011;10161;41.188;-8.642;2023-04-01T15:40:49;5.57;;;5.07;;
20000;SDS011;10161;41.188;-8.642;2023-04-01T15:43:24;5.87;;;5.20;;
20000;SDS011;10161;41.188;-8.642;2023-04-01T15:45:58;6.27;;;5.43;;
20000;SDS011;10161;41.188;-8.642;2023-04-01T15:48:33;6.63;;;5.30;;
20000;SDS011;10161;41.188;-8.642;2023-04-01T15:51:14;5.50;;;5.00;;
20000;SDS011;10161;41.188;-8.642;2023-04-01T15:54:02;7.20;;;5.07;;
20000;SDS011;10161;41.188;-8.642;2023-04-01T15:56:45;6.47;;;5.80;;
20000;SDS011;10161;41.188;-8.642;2023-04-01T15:59:37;7.03;;;6.10;;
20000;SDS011;10161;41.188;-8.642;2023-04-01T16:02:21;9.80;;;7.67;;
20000;SDS011;10161;41.188;-8.642;2023-04-01T16:04:52;7.03;;;6.20;;
20000;SDS011;10161;41.188;-8.642;2023-04-01T16:10:17;8.97;;;6.90;;
20000;SDS011;10161;41.188;-8.642;2023-04-01T16:13:00;7.33;;;6.63;;
20000;SDS011;10161;41.188;-8.642;2023-04-01T16:15:34;9.73;;;6.53;;
20000;SDS011;10161;41.188;-8.642;2023-04-01T16:18:21;11.47;;;7.70;;
20000;SDS011;10161;41.188;-8.642;2023-04-01T16:21:00;12.03;;;7.87;;
20000;SDS011;10161;41.188;-8.642;2023-04-01T16:23:33;9.30;;;7.07;;
20000;SDS011;10161;41.188;-8.642;2023-04-01T16:26:05;12.07;;;7.13;;
20000;SDS011;10161;41.188;-8.642;2023-04-01T16:28:34;11.13;;;5.80;;
20000;SDS011;10161;41.188;-8.642;2023-04-01T16:31:06;12.80;;;6.90;;
20000;SDS011;10161;41.188;-8.642;2023-04-01T16:33:38;11.83;;;6.13;;
20000;SDS011;10161;41.188;-8.642;2023-04-01T16:36:09;8.87;;;5.60;;
20000;SDS011;10161;41.188;-8.642;2023-04-01T16:38:42;9.80;;;6.73;;